Aviation Digital Data Service (ADDS)

Output produced by METARs form (0243 UTC 24 July 2017)
found at http://www.aviationweather.gov/adds/metars/
 
KGBD 232320Z 2400/2424 07006KT P6SM SKC 
     FM241300 13006KT P6SM SKC 
     FM241600 17007KT P6SM SKC AMD NOT SKED
       
KGCC 232320Z 2400/2424 16013KT P6SM BKN200 
     FM240200 18010KT P6SM VCTS BKN080CB 
     FM240500 24010KT P6SM SCT150 
     FM241700 33015KT P6SM SCT100
       
KGCK 232320Z 2400/2424 VRB03KT P6SM FEW250 
     FM241900 16011KT P6SM FEW250
       
KGCN 232327Z 2400/2424 19006KT P6SM FEW080 OVC110 
     TEMPO 2404/2408 5SM -SHRA BKN080 
     FM241600 VRB05KT P6SM -SHRA SCT040 OVC060
       
KGDV 232330Z 2400/2424 14008KT P6SM FEW250 
     FM240700 15011KT P6SM FEW250 WS020/16040KT 
     FM241600 25012KT P6SM FEW250 
     FM241800 31013KT P6SM FEW250
       
KGEG 232320Z 2400/2424 24020G26KT P6SM FEW060 FEW200 
     FM240300 26012KT P6SM SKC 
     FM240800 33012G20KT P6SM SKC 
     FM241500 35010KT P6SM SKC 
     FM242100 30009KT P6SM FEW070
       
TAF KGFA 231903Z 2319/2501 21012KT 9999 SKC QNH2987INS 
     BECMG 2401/2402 23009KT 9999 SKC QNH2986INS 
     BECMG 2412/2413 32009KT 9999 FEW030 QNH2997INS 
     BECMG 2416/2417 07009KT 9999 FEW250 QNH2993INS TX36/2322Z TN19/2413Z
       
KGFK 232337Z 2400/2424 VRB03KT P6SM SCT040 
     FM240300 13005KT P6SM SKC 
     FM241200 17007KT P6SM SKC 
     FM241500 17012KT P6SM FEW250
       
KGFL 232320Z 2400/2424 04005KT P6SM BKN080 
     FM240200 04004KT P6SM VCSH OVC080 
     FM240600 07005KT 5SM -SHRA OVC040 
     FM240900 08005KT 4SM -SHRA OVC040 
     FM241500 06004KT 6SM -SHRA BR OVC030
       
KGGG 232341Z 2400/2424 23007KT P6SM VCTS FEW060CB SCT080 
     TEMPO 2400/2404 VRB15G25KT 3SM -TSRA BR OVC030CB 
     FM240400 19006KT P6SM SCT015 OVC100 
     FM240900 20005KT P6SM VCTS BKN040CB 
     TEMPO 2412/2416 3SM -TSRA BR OVC015CB 
     FM241600 23009KT P6SM -RA BKN100
       
KGGW 232330Z 2400/2424 16010G20KT P6SM FEW250 
     FM240300 12011KT P6SM FEW150 
     FM241400 31013KT P6SM FEW110
       
KGJT 240220Z 2402/2424 16012G20KT P6SM SKC 
     FM240300 12010KT P6SM BKN200 
     FM241900 24008KT P6SM SCT100 BKN150 
     FM242200 21010KT P6SM VCSH BKN090 OVC120
       
KGKY 240211Z 2402/2424 17008KT P6SM FEW080 SCT250 
     FM240300 02015KT P6SM VCTS BKN060CB 
     FM240700 21008KT P6SM BKN120 
     FM242000 19009KT P6SM VCTS SCT050CB BKN120
       
KGLD 232321Z 2400/2424 13008KT P6SM SKC 
     FM240300 16007KT P6SM SKC 
     FM240600 19010KT P6SM FEW250 
     FM241800 18016G24KT P6SM FEW250
       
KGLH 232357Z 2400/2424 22006KT P6SM SCT100 
     FM241000 23003KT P6SM BKN015 
     FM241600 26005KT P6SM SCT025 
     FM242000 25007KT P6SM VCSH SCT040
       
KGLS 232330Z 2400/2424 20014KT P6SM BKN150 
     FM240800 20014KT P6SM SCT025 BKN150 
     FM241400 21013KT P6SM FEW035 SCT150
       
KGMU 232320Z 2400/2424 22009KT P6SM VCSH BKN050 
     FM240200 22006KT P6SM SCT070 BKN250 
     FM241600 24007KT P6SM SCT050 BKN250 
     PROB30 2417/2423 4SM -TSRA BKN040CB
       
KGNV 240039Z 2401/2424 20006KT P6SM SCT130 OVC200 
     FM240500 VRB03KT P6SM FEW020 SCT100 SCT250 
     FM241200 23007KT P6SM VCSH SCT040 SCT080 BKN250 
     FM241500 22009KT P6SM VCTS SCT025 BKN040CB 
     PROB30 2417/2421 VRB15G25KT -TSRA SCT015 BKN025CB
       
KGON 240237Z 2403/2424 10009KT P6SM BKN100 
     TEMPO 2405/2407 BKN025 
     FM240700 08010G16KT P6SM VCSH BKN025 
     FM240900 07013G19KT 6SM -SHRA SCT015 OVC025 
     FM241100 06017G26KT 4SM SHRA BR OVC008 
     FM241500 06017G26KT 6SM -SHRA OVC015 
     FM241900 05015G20KT P6SM BKN020 
     FM242200 04013KT P6SM BKN025
       
KGPT 232340Z 2400/2424 31005KT P6SM FEW028 SCT070 BKN250 
     FM240900 27006KT P6SM SCT020 BKN100 
     PROB30 2409/2412 4SM TSRA BKN020CB BKN025 
     FM241200 26006KT P6SM -SHRA VCTS SCT025CB BKN070
       
KGRB 232339Z 2400/2424 04011G17KT P6SM BKN025 BKN060 
     FM240600 01007G15KT P6SM BKN021 
     FM240800 01007KT P6SM BKN019 
     FM241400 03008KT P6SM SCT040 BKN080 
     FM241900 04007KT P6SM SCT060 
     FM242300 09004KT P6SM SKC
       
TAF KGRF 232101Z 2321/2503 02012KT 9999 OVC030 QNH3004INS 
     BECMG 2404/2405 01006KT 9999 SCT030 QNH3000INS 
     BECMG 2408/2409 20006KT 9999 SKC QNH2999INS 
     BECMG 2416/2417 03009KT 9999 SKC QNH2995INS TX25/2323Z TN14/2412Z
       
KGRI 232327Z 2400/2424 09008KT P6SM SKC 
     FM241500 17011KT P6SM SKC
       
TAF KGRK 240000Z 2400/2506 VRB06KT 9999 BKN060 QNH2982INS 
     BECMG 2414/2415 18009KT 9999 SCT075 QNH2990INS 
     TEMPO 2420/2423 VRB12G18KT 8000 -TSRA BKN070CB TX36/2421Z TN24/2411Z
       
KGRR 232345Z 2400/2424 33009KT P6SM BKN100 BKN200 
     FM240600 34008KT P6SM BKN025 
     FM241000 35009KT P6SM BKN010 
     FM241500 36010KT P6SM BKN025 
     FM241800 36010KT P6SM BKN035
       
TAF AMD KGSB 240150Z 2401/2502 23009KT 9999 SCT040 SCT080 QNH2979INS 
     TEMPO 2401/2404 22010G15KT 4800 -TSRA BKN040CB 
     BECMG 2403/2404 21009KT 9999 FEW025 SCT050 520203 QNH2983INS 
     BECMG 2412/2413 23012KT 9999 SCT040 BKN120 QNH2986INS 
     BECMG 2420/2421 24012G18KT 9000 -SHRA BKN040 BKN120 QNH2988INS TX36/2401Z TN26/2411Z
       
KGSO 232338Z 2400/2424 VRB05KT P6SM SCT040 BKN120
       
KGSP 232320Z 2400/2424 22009KT P6SM VCSH BKN050 
     FM240200 22006KT P6SM SCT070 BKN250 
     FM241600 24007KT P6SM SCT050 BKN250 
     PROB30 2417/2423 4SM -TSRA BKN040CB
       
TAF AMD KGTB 240203Z 2402/2507 06009KT 9999 SCT050 BKN090 QNH2978INS 
     BECMG 2405/2406 13015G20KT 9000 -SHRA BKN015 OVC020 QNH2974INS 
     TEMPO 2406/2410 6000 SHRA VCTS OVC010CB 
     BECMG 2417/2418 15012KT 9999 NSW SCT015 BKN030 OVC040 QNH2974INS 
     BECMG 2421/2422 16012KT 9000 -SHRA SCT010 BKN015 OVC040 QNH2974INS TX20/2402Z TN15/2412Z
       
KGTF 232321Z 2400/2424 VRB06KT P6SM FEW110 FEW250 
     TEMPO 2400/2402 22015G20KT
       
KGTR 232357Z 2400/2424 21004KT P6SM VCSH SCT025 
     FM240300 20003KT P6SM SCT250 
     FM241000 VRB03KT P6SM BKN015 
     FM241600 23005KT P6SM SCT025 
     FM242000 20005KT P6SM VCTS SCT035CB 
     TEMPO 2420/2424 3SM TSRA BKN025CB
       
KGUP 232339Z 2400/2424 14010KT P6SM VCTS BKN090CB 
     TEMPO 2400/2402 VRB15G25KT -SHRA OVC070 
     FM240200 15010KT P6SM SCT050 BKN100 
     FM240900 VRB04KT P6SM SCT150 BKN250 
     FM242000 16008KT P6SM VCTS BKN080CB
       
TAF AMD KGUS 240100Z 2401/2501 29009KT 9999 SKC QNH2977INS 
     TEMPO 2401/2402 33015G25KT 8000 -TSRA OVC025CB 
     BECMG 2401/2402 33006KT 9999 FEW035 QNH2980INS 
     BECMG 2408/2409 27003KT 3200 BR FEW060 QNH2981INS 
     BECMG 2414/2415 34012KT 9999 NSW SCT018 BKN035 QNH2997INS WND 02012KT AFT 2423 TX27/2401Z TN18/2410Z
       
KGWO 232357Z 2400/2424 21004KT P6SM VCTS SCT035CB 
     FM240200 20003KT P6SM SCT250 
     FM241000 VRB03KT P6SM BKN015 
     FM241600 23005KT P6SM SCT025 
     FM242000 20005KT P6SM VCTS SCT035CB 
     TEMPO 2421/2424 3SM TSRA BKN025CB
       
KGYY 232323Z 2400/2424 36007KT P6SM SCT040 BKN100 
     FM241300 02011G17KT P6SM SCT015 BKN020 
     FM241800 02012KT P6SM SCT040